NCAR-RAP Real-Time Weather Data

Output produced by METARs form (12 May 2021  10:34 UTC)
found at http://weather.rap.ucar.edu/surface/
 
KSYR 120954Z 27006KT 10SM SCT019 BKN027 BKN065 06/03 A3017 RMK AO2 SLP216 T00610033
KSYR 120854Z 27010KT 10SM BKN021 OVC030 06/03 A3016 RMK AO2 RAE45 SLP210 P0000 60002 T00610033 53007
KSYR 120847Z 28008KT 10SM BKN021 OVC030 06/03 A3016 RMK AO2 RAE45 P0000 T00610033
KSYR 120803Z 27012KT 10SM -RA BKN016 OVC025 06/03 A3015 RMK AO2 P0000 T00610033
KSYR 120754Z 27011KT 10SM -RA BKN014 OVC024 06/03 A3015 RMK AO2 SLP207 P0002 T00610033
KSYR 120711Z 27012KT 9SM -RA OVC014 06/03 A3014 RMK AO2 P0001 T00560028
KSYR 120654Z 27013KT 10SM -RA BKN015 OVC023 06/03 A3013 RMK AO2 SLP203 P0000 T00610028
KSYR 120622Z 27011G21KT 10SM -RA BKN019 OVC025 06/02 A3014 RMK AO2 P0000 T00610022
KSYR 120554Z 28014G21KT 10SM -RA OVC023 07/02 A3014 RMK AO2 SLP203 PCPN VRY LGT P0000 60000 T00670017 10094 20067 50002
KSYR 120547Z 27015G24KT 10SM -RA OVC023 07/02 A3014 RMK AO2 PCPN VRY LGT P0000 T00670017
KSYR 120516Z 28012G19KT 10SM -RA SCT028 OVC060 07/01 A3014 RMK AO2 P0000 T00720011
KSYR 120503Z 28016G20KT 10SM -RA BKN028 BKN046 OVC060 07/01 A3014 RMK AO2 P0000 T00720011
KSYR 120454Z 28014G19KT 10SM -RA SCT030 OVC065 07/01 A3014 RMK AO2 RAB03 SLP205 P0000 T00720011 401390039
KSYR 120354Z 27013KT 10SM FEW090 BKN140 07/01 A3013 RMK AO2 SLP203 T00720011
KSYR 120254Z 28011KT 10SM FEW080 07/01 A3013 RMK AO2 SLP201 T00720006 51015
KSYR 120154Z 27011KT 10SM FEW080 08/M01 A3012 RMK AO2 SLP198 T00781006
KSYR 120054Z 27016G22KT 10SM FEW055 SCT080 08/M01 A3010 RMK AO2 PK WND 27026/0012 SLP191 T00831011
KSYR 112354Z 28018G24KT 10SM FEW055 BKN080 10/M02 A3008 RMK AO2 PK WND 29027/2326 SLP186 T01001022 10139 20100 53013
KSYR 112254Z 29018G23KT 10SM FEW055 SCT070 11/M03 A3007 RMK AO2 PK WND 31026/2158 SLP180 T01111028
KSYR 112154Z 29014G24KT 10SM FEW055 SCT070 13/M02 A3006 RMK AO2 PK WND 29029/2141 SLP176 T01281017
KSYR 112054Z 28017KT 10SM FEW055 SCT070 12/M02 A3004 RMK AO2 SLP173 T01221017 55003
KSYR 111954Z 29016KT 10SM SCT055 BKN070 13/M01 A3004 RMK AO2 PK WND 30026/1930 SLP172 T01281011
KSYR 111854Z 29019G24KT 10SM SCT048 BKN060 13/M01 A3005 RMK AO2 PK WND 26026/1827 SLP174 VIRGA SE AND SW T01281006
KSYR 111754Z 30019G24KT 10SM SCT038 BKN050 BKN070 12/01 A3005 RMK AO2 PK WND 27027/1721 RAB23E35 SLP176 VIRGA E-S P0000 60000 T01220006 10133 20078 58002